Time;durP1;ratioP1;P1;durP2;ratioP2;P2;SDS_P1;SDS_P2;PMS_P1;PMS_P2;Temp;Humidity;BMP_temperature;BMP_pressure;BME280_temperature;BME280_humidity;BME280_pressure;Samples;Min_cycle;Max_cycle;Signal;HPM_P1;HPM_P2
2022/03/07 00:00:48;;;;;;;4.20;2.78;;;;;;;0.65;100.00;102903.97;5001168;28;20050;-77
2022/03/07 00:03:17;;;;;;;3.45;2.38;;;;;;;0.65;100.00;102910.84;5010803;28;20178;-77
2022/03/07 00:05:46;;;;;;;4.80;2.35;;;;;;;0.61;100.00;102909.72;5007732;28;20510;-76
2022/03/07 00:08:14;;;;;;;4.03;2.90;;;;;;;0.58;100.00;102907.75;5003207;28;20056;-77
2022/03/07 00:11:03;;;;;;;5.85;2.60;;;;;;;0.57;100.00;102902.50;4996911;28;20052;-77
2022/03/07 00:13:31;;;;;;;3.22;2.50;;;;;;;0.55;100.00;102909.25;5042955;28;20247;-77
2022/03/07 00:16:03;;;;;;;4.38;2.50;;;;;;;0.53;100.00;102906.53;4995157;28;20407;-77
2022/03/07 00:18:31;;;;;;;2.58;2.38;;;;;;;0.51;100.00;102908.09;5023195;28;20183;-77
2022/03/07 00:21:03;;;;;;;3.70;2.42;;;;;;;0.48;100.00;102909.56;4994763;28;20041;-77
2022/03/07 00:23:31;;;;;;;4.20;3.42;;;;;;;0.45;100.00;102915.38;4989583;28;20057;-77
2022/03/07 00:26:00;;;;;;;3.13;2.60;;;;;;;0.42;100.00;102909.06;5008236;28;20037;-79
2022/03/07 00:28:29;;;;;;;4.30;2.90;;;;;;;0.39;100.00;102915.81;5025790;28;20278;-78
2022/03/07 00:30:58;;;;;;;5.35;2.65;;;;;;;0.37;100.00;102916.50;5009103;28;20053;-78
2022/03/07 00:33:27;;;;;;;4.00;2.20;;;;;;;0.32;100.00;102916.16;5005628;28;20255;-76
2022/03/07 00:35:56;;;;;;;6.00;2.45;;;;;;;0.28;100.00;102920.97;5008524;28;20041;-77
2022/03/07 00:38:27;;;;;;;5.35;2.70;;;;;;;0.25;100.00;102920.75;5019420;28;20415;-76
2022/03/07 00:40:56;;;;;;;5.55;2.67;;;;;;;0.22;100.00;102928.28;4995342;28;20057;-78
2022/03/07 00:43:24;;;;;;;2.72;2.50;;;;;;;0.17;100.00;102921.03;5019269;28;20033;-76
2022/03/07 00:45:53;;;;;;;4.18;2.60;;;;;;;0.14;100.00;102931.16;5006125;28;20049;-77
2022/03/07 00:48:22;;;;;;;5.45;2.75;;;;;;;0.11;100.00;102924.81;4997058;28;20339;-77
2022/03/07 00:50:52;;;;;;;6.68;2.90;;;;;;;0.06;100.00;102937.44;5011781;28;20483;-77
2022/03/07 00:53:23;;;;;;;3.28;2.60;;;;;;;0.03;100.00;102928.50;4982419;28;20238;-79
2022/03/07 00:55:53;;;;;;;6.90;3.08;;;;;;;-0.02;100.00;102939.41;4980529;28;20046;-78
2022/03/07 00:58:22;;;;;;;5.95;2.50;;;;;;;-0.05;100.00;102938.28;5012281;28;20325;-77
2022/03/07 01:00:51;;;;;;;4.00;2.80;;;;;;;-0.07;100.00;102942.44;5019657;28;20053;-77
2022/03/07 01:03:20;;;;;;;4.38;2.20;;;;;;;-0.11;100.00;102945.56;4996075;28;20045;-78
2022/03/07 01:05:49;;;;;;;4.72;3.08;;;;;;;-0.13;100.00;102942.84;4986735;28;20033;-77
2022/03/07 01:08:18;;;;;;;4.07;2.15;;;;;;;-0.16;100.00;102942.59;5012705;28;20046;-79
2022/03/07 01:10:47;;;;;;;5.93;2.65;;;;;;;-0.17;100.00;102940.78;5002518;28;20054;-79
2022/03/07 01:13:19;;;;;;;5.78;3.13;;;;;;;-0.19;100.00;102937.16;4997827;28;20034;-77
2022/03/07 01:15:48;;;;;;;4.95;2.78;;;;;;;-0.21;100.00;102936.13;5004398;28;20038;-77
2022/03/07 01:18:20;;;;;;;5.35;2.55;;;;;;;-0.22;100.00;102939.50;5012034;28;20442;-77
2022/03/07 01:20:49;;;;;;;3.92;2.55;;;;;;;-0.27;100.00;102931.34;5022406;28;20045;-78
2022/03/07 01:23:19;;;;;;;4.35;2.60;;;;;;;-0.30;100.00;102932.78;4993916;28;20322;-76
2022/03/07 01:25:48;;;;;;;5.30;2.53;;;;;;;-0.34;100.00;102931.66;4998002;28;20038;-76
2022/03/07 01:28:19;;;;;;;5.80;2.63;;;;;;;-0.38;100.00;102928.69;4977693;28;20042;-77
2022/03/07 01:30:48;;;;;;;3.25;2.88;;;;;;;-0.38;100.00;102924.41;5022781;28;20046;-77
2022/03/07 01:33:17;;;;;;;3.13;2.40;;;;;;;-0.42;100.00;102925.84;5010809;28;20249;-76
2022/03/07 01:35:46;;;;;;;3.00;2.33;;;;;;;-0.43;100.00;102933.50;4989277;28;20056;-77
2022/03/07 01:38:14;;;;;;;3.45;2.60;;;;;;;-0.44;100.00;102923.91;4996671;28;20046;-76
2022/03/07 01:40:44;;;;;;;4.53;2.80;;;;;;;-0.47;100.00;102921.09;5018275;28;20049;-77
2022/03/07 01:43:13;;;;;;;5.93;2.67;;;;;;;-0.49;100.00;102920.97;4961458;28;20338;-77
2022/03/07 01:45:42;;;;;;;3.67;2.67;;;;;;;-0.49;100.00;102914.84;4989199;28;20303;-77
2022/03/07 01:48:10;;;;;;;6.50;2.83;;;;;;;-0.52;100.00;102915.50;4995831;28;20049;-77
2022/03/07 01:50:39;;;;;;;2.50;2.28;;;;;;;-0.54;100.00;102906.72;4970964;28;20069;-77
2022/03/07 01:53:09;;;;;;;4.65;2.75;;;;;;;-0.56;100.00;102908.28;5003516;28;20053;-78
2022/03/07 01:55:37;;;;;;;5.97;3.22;;;;;;;-0.56;100.00;102899.63;5006738;28;20059;-76
2022/03/07 01:58:07;;;;;;;4.63;2.85;;;;;;;-0.59;100.00;102897.66;4993710;28;20038;-78
2022/03/07 02:00:35;;;;;;;5.18;2.78;;;;;;;-0.60;100.00;102903.63;4972146;28;20406;-76
2022/03/07 02:03:04;;;;;;;7.00;3.75;;;;;;;-0.61;100.00;102894.94;5034505;23;20685;-79
2022/03/07 02:05:46;;;;;;;5.07;2.95;;;;;;;-0.63;100.00;102904.28;5050296;28;20041;-79
2022/03/07 02:08:20;;;;;;;3.97;2.47;;;;;;;-0.65;100.00;102908.44;5047182;28;20041;-79
2022/03/07 02:11:01;;;;;;;6.40;3.45;;;;;;;-0.67;100.00;102909.09;5066139;28;20045;-79
2022/03/07 02:13:32;;;;;;;6.90;3.30;;;;;;;-0.69;100.00;102918.41;5047355;28;20056;-79
2022/03/07 02:16:06;;;;;;;9.20;3.50;;;;;;;-0.70;100.00;102920.13;5045537;28;20056;-79
2022/03/07 02:18:38;;;;;;;4.65;3.40;;;;;;;-0.73;100.00;102901.72;5057341;28;20052;-80
2022/03/07 02:21:15;;;;;;;9.75;3.13;;;;;;;-0.74;100.00;102925.78;5040037;28;20045;-80
2022/03/07 02:24:01;;;;;;;4.47;3.22;;;;;;;-0.77;100.00;102914.31;5030515;28;20048;-79
2022/03/07 02:26:30;;;;;;;4.63;2.87;;;;;;;-0.77;100.00;102914.31;5035206;28;20041;-79
2022/03/07 02:29:00;;;;;;;5.10;2.75;;;;;;;-0.80;100.00;102923.59;5035636;28;20036;-79
2022/03/07 02:31:34;;;;;;;4.90;2.83;;;;;;;-0.83;100.00;102918.19;4995645;28;20387;-79
2022/03/07 02:34:07;;;;;;;5.53;3.05;;;;;;;-0.85;100.00;102921.41;5037237;28;20056;-79
2022/03/07 02:36:37;;;;;;;3.58;2.47;;;;;;;-0.86;100.00;102917.03;5050192;28;20397;-80
2022/03/07 02:39:05;;;;;;;4.95;2.88;;;;;;;-0.87;100.00;102917.78;5062166;28;20041;-80
2022/03/07 02:41:38;;;;;;;3.25;2.10;;;;;;;-0.89;100.00;102907.34;5064805;28;20052;-79
2022/03/07 02:44:07;;;;;;;2.87;2.43;;;;;;;-0.91;100.00;102906.28;5053184;28;20043;-79
2022/03/07 02:46:37;;;;;;;4.45;3.28;;;;;;;-0.92;100.00;102906.19;5019456;28;20294;-79
2022/03/07 02:49:06;;;;;;;3.20;2.42;;;;;;;-0.93;100.00;102906.94;5069134;28;20048;-79
2022/03/07 02:51:35;;;;;;;6.75;2.92;;;;;;;-0.94;100.00;102899.97;5071638;28;20036;-80
2022/03/07 02:54:04;;;;;;;2.33;2.13;;;;;;;-0.95;100.00;102892.97;5046756;28;20054;-80
2022/03/07 02:56:37;;;;;;;6.68;2.63;;;;;;;-0.96;100.00;102905.03;5068476;28;20053;-79
2022/03/07 02:59:10;;;;;;;5.03;2.53;;;;;;;-0.96;100.00;102897.25;5047312;28;20049;-79
2022/03/07 03:01:39;;;;;;;4.28;2.35;;;;;;;-0.99;100.00;102884.03;5011576;28;20540;-80
2022/03/07 03:04:07;;;;;;;5.03;2.53;;;;;;;-1.00;100.00;102892.59;5046497;28;20045;-80
2022/03/07 03:06:36;;;;;;;5.22;2.75;;;;;;;-1.02;100.00;102892.47;5036785;28;20044;-79
2022/03/07 03:09:07;;;;;;;5.20;2.50;;;;;;;-1.03;100.00;102892.34;5010005;28;20036;-80
2022/03/07 03:11:36;;;;;;;3.83;2.65;;;;;;;-1.04;100.00;102886.28;5004783;28;20064;-79
2022/03/07 03:14:06;;;;;;;12.05;2.85;;;;;;;-1.04;100.00;102887.94;5057152;28;20048;-80
2022/03/07 03:16:35;;;;;;;4.13;2.70;;;;;;;-1.06;100.00;102880.06;5040083;28;20049;-79
2022/03/07 03:19:03;;;;;;;3.80;2.45;;;;;;;-1.08;100.00;102880.69;5048699;28;20041;-78
2022/03/07 03:21:32;;;;;;;6.18;2.80;;;;;;;-1.09;100.00;102877.22;5000774;28;20057;-79
2022/03/07 03:24:00;;;;;;;8.20;2.85;;;;;;;-1.12;100.00;102887.28;5030667;28;20048;-80
2022/03/07 03:26:29;;;;;;;2.80;2.53;;;;;;;-1.13;100.00;102872.56;5040853;28;20257;-79
2022/03/07 03:29:01;;;;;;;2.85;2.58;;;;;;;-1.13;100.00;102874.25;5054241;28;20052;-80
2022/03/07 03:31:29;;;;;;;4.25;2.97;;;;;;;-1.14;100.00;102882.78;5034456;28;20445;-79
2022/03/07 03:33:58;;;;;;;6.10;2.50;;;;;;;-1.16;100.00;102874.00;5058318;28;20097;-80
2022/03/07 03:36:28;;;;;;;3.35;2.40;;;;;;;-1.20;100.00;102871.13;5034713;28;20041;-78
2022/03/07 03:38:58;;;;;;;3.40;2.55;;;;;;;-1.21;100.00;102877.09;5024447;28;20397;-78
2022/03/07 03:41:27;;;;;;;3.60;2.53;;;;;;;-1.22;100.00;102879.56;5034006;28;20041;-78
2022/03/07 03:43:55;;;;;;;7.38;2.72;;;;;;;-1.24;100.00;102870.75;5020939;28;20049;-79
2022/03/07 03:46:24;;;;;;;3.97;3.10;;;;;;;-1.26;100.00;102878.38;5034715;28;20045;-78
2022/03/07 03:48:53;;;;;;;4.57;2.97;;;;;;;-1.26;100.00;102877.50;5020291;28;20038;-77
2022/03/07 03:51:21;;;;;;;2.85;2.40;;;;;;;-1.26;100.00;102873.22;5028034;28;20062;-79
2022/03/07 03:53:50;;;;;;;3.58;2.35;;;;;;;-1.26;100.00;102883.56;5030939;28;20056;-77
2022/03/07 03:56:18;;;;;;;5.93;2.60;;;;;;;-1.27;100.00;102889.50;5025033;28;20053;-78
2022/03/07 03:58:47;;;;;;;3.83;2.78;;;;;;;-1.29;100.00;102892.75;5050594;28;20044;-79
2022/03/07 04:01:15;;;;;;;4.85;2.83;;;;;;;-1.30;100.00;102883.19;5029118;28;20175;-78
2022/03/07 04:03:44;;;;;;;4.05;2.53;;;;;;;-1.31;100.00;102899.47;5029560;28;20041;-79
2022/03/07 04:06:13;;;;;;;5.30;2.75;;;;;;;-1.34;100.00;102900.13;5047708;28;20044;-78
2022/03/07 04:08:42;;;;;;;4.03;2.63;;;;;;;-1.36;100.00;102901.69;5015641;28;20052;-78
2022/03/07 04:11:11;;;;;;;5.60;2.50;;;;;;;-1.37;100.00;102895.59;5043067;28;20045;-78
2022/03/07 04:13:40;;;;;;;5.63;2.95;;;;;;;-1.36;100.00;102904.28;5005599;28;20049;-79
2022/03/07 04:16:12;;;;;;;5.30;2.92;;;;;;;-1.37;100.00;102915.38;5032504;28;20029;-79
2022/03/07 04:18:42;;;;;;;6.88;2.60;;;;;;;-1.38;100.00;102913.56;5023415;28;20053;-79
2022/03/07 04:21:10;;;;;;;3.78;2.80;;;;;;;-1.39;100.00;102916.94;5034022;28;20041;-79
2022/03/07 04:23:39;;;;;;;6.72;3.50;;;;;;;-1.40;100.00;102915.09;5054304;28;20516;-77
2022/03/07 04:26:08;;;;;;;5.63;3.08;;;;;;;-1.41;100.00;102915.91;5032878;28;20036;-78
2022/03/07 04:28:39;;;;;;;4.40;2.78;;;;;;;-1.43;100.00;102914.88;5034470;28;20071;-79
2022/03/07 04:31:08;;;;;;;3.58;2.78;;;;;;;-1.44;100.00;102913.94;5019478;28;20040;-77
2022/03/07 04:33:36;;;;;;;3.63;2.70;;;;;;;-1.44;100.00;102919.13;5006346;28;20033;-79
2022/03/07 04:36:05;;;;;;;3.97;3.65;;;;;;;-1.43;100.00;102913.19;5050097;28;20033;-79
2022/03/07 04:38:34;;;;;;;4.70;3.60;;;;;;;-1.40;100.00;102921.22;5035705;28;20048;-79
2022/03/07 04:41:02;;;;;;;6.68;3.35;;;;;;;-1.39;100.00;102922.09;5035918;28;20057;-78
2022/03/07 04:43:33;;;;;;;5.80;3.40;;;;;;;-1.38;100.00;102916.13;5003178;28;20041;-79
2022/03/07 04:46:02;;;;;;;8.75;3.45;;;;;;;-1.39;100.00;102923.00;4998225;28;20101;-80
2022/03/07 04:48:31;;;;;;;5.47;3.72;;;;;;;-1.40;100.00;102925.44;5027594;28;20348;-77
2022/03/07 04:50:59;;;;;;;3.45;3.15;;;;;;;-1.42;100.00;102927.00;5035282;28;20049;-80
2022/03/07 04:53:28;;;;;;;4.63;3.40;;;;;;;-1.43;100.00;102925.22;5016610;28;20057;-79
2022/03/07 04:55:57;;;;;;;5.30;3.78;;;;;;;-1.45;100.00;102926.78;5045280;28;20112;-77
2022/03/07 04:58:25;;;;;;;4.10;3.58;;;;;;;-1.46;100.00;102932.69;5046638;28;20167;-79
2022/03/07 05:00:54;;;;;;;5.57;3.30;;;;;;;-1.47;100.00;102936.09;4986068;28;20069;-79
2022/03/07 05:03:23;;;;;;;6.03;3.22;;;;;;;-1.49;100.00;102940.19;5037649;28;20061;-78
2022/03/07 05:05:52;;;;;;;6.70;3.72;;;;;;;-1.50;100.00;102935.81;5042892;28;20046;-78
2022/03/07 05:08:21;;;;;;;3.85;3.30;;;;;;;-1.53;100.00;102932.94;5050418;28;20056;-79
2022/03/07 05:10:50;;;;;;;5.32;3.70;;;;;;;-1.54;100.00;102926.88;5037507;28;20393;-79
2022/03/07 05:13:19;;;;;;;9.90;4.13;;;;;;;-1.53;100.00;102920.94;5026220;28;20064;-79
2022/03/07 05:15:47;;;;;;;5.60;3.78;;;;;;;-1.53;100.00;102927.78;4998981;28;20052;-78
2022/03/07 05:18:21;;;;;;;10.55;4.03;;;;;;;-1.55;100.00;102917.31;5049938;28;20230;-78
2022/03/07 05:20:50;;;;;;;5.90;3.85;;;;;;;-1.54;100.00;102925.97;5022756;28;20037;-79
2022/03/07 05:23:25;;;;;;;4.78;4.13;;;;;;;-1.54;100.00;102918.22;5033977;28;20146;-79
2022/03/07 05:25:57;;;;;;;7.28;4.65;;;;;;;-1.55;100.00;102913.81;5001302;28;20494;-79
2022/03/07 05:28:25;;;;;;;6.65;4.20;;;;;;;-1.57;100.00;102924.00;5055346;28;20548;-79
2022/03/07 05:30:54;;;;;;;4.95;3.83;;;;;;;-1.58;100.00;102924.81;5053256;28;20041;-77
2022/03/07 05:33:23;;;;;;;4.97;3.97;;;;;;;-1.59;100.00;102918.75;5045068;28;20037;-78
2022/03/07 05:35:51;;;;;;;5.65;4.20;;;;;;;-1.57;100.00;102921.44;5015859;28;20041;-79
2022/03/07 05:38:20;;;;;;;9.15;4.28;;;;;;;-1.58;100.00;102925.69;5015857;28;20273;-78
2022/03/07 05:40:49;;;;;;;6.45;3.95;;;;;;;-1.61;100.00;102922.88;5023003;28;20049;-78
2022/03/07 05:43:18;;;;;;;5.55;4.18;;;;;;;-1.61;100.00;102914.19;5019392;28;20056;-79
2022/03/07 05:45:46;;;;;;;9.20;4.65;;;;;;;-1.62;100.00;102918.47;5047499;28;20049;-77
2022/03/07 05:48:15;;;;;;;7.80;4.80;;;;;;;-1.63;100.00;102915.75;5039347;28;20068;-79
2022/03/07 05:50:44;;;;;;;9.32;5.70;;;;;;;-1.63;100.00;102914.06;4985393;28;20053;-79
2022/03/07 05:53:13;;;;;;;8.43;4.90;;;;;;;-1.63;100.00;102916.63;5046443;28;20036;-78
2022/03/07 05:55:41;;;;;;;11.13;5.30;;;;;;;-1.62;100.00;102915.88;5037017;28;20501;-79
2022/03/07 05:58:10;;;;;;;7.68;5.35;;;;;;;-1.61;100.00;102917.72;5068320;28;20052;-80
2022/03/07 06:00:39;;;;;;;9.98;4.85;;;;;;;-1.62;100.00;102917.56;5027303;28;20065;-78
2022/03/07 06:03:08;;;;;;;7.32;4.88;;;;;;;-1.63;100.00;102915.75;5024512;28;20049;-79
2022/03/07 06:05:40;;;;;;;11.95;5.20;;;;;;;-1.66;100.00;102913.81;5030168;28;20032;-77
2022/03/07 06:08:09;;;;;;;6.97;4.72;;;;;;;-1.68;100.00;102917.94;5016530;28;20038;-79
2022/03/07 06:10:38;;;;;;;7.63;4.97;;;;;;;-1.69;100.00;102918.72;5039075;28;20056;-79
2022/03/07 06:13:06;;;;;;;5.57;4.65;;;;;;;-1.68;100.00;102923.13;5046644;28;20397;-78
2022/03/07 06:15:43;;;;;;;10.07;5.10;;;;;;;-1.67;100.00;102922.31;5023838;28;20056;-79
2022/03/07 06:18:12;;;;;;;6.78;5.10;;;;;;;-1.68;100.00;102922.19;5016319;28;20038;-78
2022/03/07 06:20:44;;;;;;;6.13;5.10;;;;;;;-1.68;100.00;102923.13;5011895;28;20063;-79
2022/03/07 06:23:15;;;;;;;6.55;4.53;;;;;;;-1.66;100.00;102921.56;5044506;28;20698;-79
2022/03/07 06:25:44;;;;;;;9.07;5.15;;;;;;;-1.64;100.00;102913.94;5013989;28;20037;-79
2022/03/07 06:28:14;;;;;;;6.47;4.45;;;;;;;-1.66;100.00;102906.06;5003502;28;20239;-78
2022/03/07 06:30:46;;;;;;;7.30;4.85;;;;;;;-1.68;100.00;102912.78;4993455;28;20060;-78
2022/03/07 06:33:16;;;;;;;10.30;5.22;;;;;;;-1.66;100.00;102918.09;5026007;28;20064;-79
2022/03/07 06:35:44;;;;;;;7.63;4.32;;;;;;;-1.68;100.00;102907.59;4980765;28;20057;-78
2022/03/07 06:38:16;;;;;;;6.88;4.78;;;;;;;-1.67;100.00;102914.56;4989757;28;20509;-79
2022/03/07 06:40:51;;;;;;;6.65;4.90;;;;;;;-1.66;100.00;102915.50;5031149;28;20254;-79
2022/03/07 06:43:20;;;;;;;12.43;5.13;;;;;;;-1.64;100.00;102922.59;5014612;28;20044;-79
2022/03/07 06:45:49;;;;;;;9.32;7.32;;;;;;;-1.61;100.00;102925.47;5049072;28;20072;-79
2022/03/07 06:48:20;;;;;;;8.48;5.95;;;;;;;-1.57;100.00;102931.78;5034378;28;20033;-79
2022/03/07 06:50:49;;;;;;;10.27;5.82;;;;;;;-1.55;100.00;102937.09;5059668;28;20037;-80
2022/03/07 06:53:17;;;;;;;9.75;5.95;;;;;;;-1.54;100.00;102931.16;4997266;28;20064;-79
2022/03/07 06:55:49;;;;;;;9.70;5.78;;;;;;;-1.50;100.00;102923.78;5047197;28;20628;-80
2022/03/07 06:58:18;;;;;;;6.55;5.25;;;;;;;-1.39;100.00;102927.28;5047964;28;20523;-81
2022/03/07 07:00:48;;;;;;;6.40;5.53;;;;;;;-1.19;100.00;102928.97;5004628;28;20136;-79
2022/03/07 07:03:17;;;;;;;9.52;5.80;;;;;;;-0.67;100.00;102924.63;5040700;28;20045;-80
2022/03/07 07:05:52;;;;;;;11.02;5.60;;;;;;;-0.26;100.00;102919.31;5025524;28;20033;-80
2022/03/07 07:08:21;;;;;;;8.52;5.28;;;;;;;0.24;100.00;102919.81;5020064;28;20028;-79
2022/03/07 07:10:52;;;;;;;10.07;4.63;;;;;;;0.81;100.00;102913.81;5023767;28;20162;-79
2022/03/07 07:13:21;;;;;;;5.45;4.10;;;;;;;1.19;100.00;102914.88;5055115;28;20056;-79
2022/03/07 07:15:55;;;;;;;6.15;5.05;;;;;;;1.13;100.00;102928.31;5021129;28;20060;-81
2022/03/07 07:18:27;;;;;;;7.72;4.00;;;;;;;1.00;100.00;102930.78;5013454;28;20155;-81
2022/03/07 07:20:56;;;;;;;4.70;3.90;;;;;;;0.86;100.00;102927.16;5014660;28;20201;-80
2022/03/07 07:23:25;;;;;;;6.72;4.53;;;;;;;0.73;100.00;102928.81;5018411;28;20549;-81
2022/03/07 07:25:54;;;;;;;6.72;4.15;;;;;;;0.59;100.00;102929.44;5022447;28;20045;-79
2022/03/07 07:28:23;;;;;;;6.18;4.03;;;;;;;0.50;100.00;102933.94;5036764;28;20037;-80
2022/03/07 07:30:58;;;;;;;5.85;4.32;;;;;;;0.44;100.00;102934.34;5020713;28;20041;-79
2022/03/07 07:33:27;;;;;;;11.70;4.55;;;;;;;0.41;100.00;102933.22;5036114;28;20036;-79
2022/03/07 07:35:56;;;;;;;5.90;4.30;;;;;;;0.38;100.00;102934.78;5033321;28;20262;-80
2022/03/07 07:38:24;;;;;;;8.60;4.75;;;;;;;0.38;100.00;102937.38;5036478;28;20033;-79
2022/03/07 07:40:56;;;;;;;7.55;4.57;;;;;;;0.41;100.00;102933.22;5027889;28;20057;-80
2022/03/07 07:43:27;;;;;;;6.35;5.25;;;;;;;0.48;100.00;102935.50;5038794;28;20056;-79
2022/03/07 07:45:55;;;;;;;7.70;5.18;;;;;;;0.58;100.00;102938.00;4979203;28;20071;-80
2022/03/07 07:48:30;;;;;;;5.22;4.00;;;;;;;0.70;100.00;102938.97;5026268;28;20397;-80
2022/03/07 07:50:59;;;;;;;4.53;4.13;;;;;;;0.89;100.00;102927.38;5062004;28;20041;-79
2022/03/07 07:53:33;;;;;;;9.82;4.88;;;;;;;1.17;100.00;102918.28;5021667;28;20048;-80
2022/03/07 07:56:03;;;;;;;14.95;4.65;;;;;;;1.63;100.00;102930.28;5035779;28;20504;-81
2022/03/07 07:58:32;;;;;;;10.70;4.25;;;;;;;2.19;100.00;102930.81;5040905;28;20524;-81
2022/03/07 08:01:00;;;;;;;13.00;4.25;;;;;;;2.85;100.00;102927.56;5033282;28;20151;-80
2022/03/07 08:03:32;;;;;;;6.72;2.80;;;;;;;3.56;100.00;102918.34;5022054;28;20040;-82
2022/03/07 08:06:01;;;;;;;7.32;3.17;;;;;;;4.20;100.00;102932.88;5066053;28;20045;-80
2022/03/07 08:08:30;;;;;;;9.57;2.78;;;;;;;4.78;100.00;102929.44;5028522;28;20375;-80
2022/03/07 08:10:59;;;;;;;3.97;2.40;;;;;;;5.34;100.00;102926.66;5059133;28;20060;-80
2022/03/07 08:13:27;;;;;;;4.07;2.17;;;;;;;5.88;100.00;102928.78;5043506;28;20075;-81
2022/03/07 08:15:56;;;;;;;4.07;1.92;;;;;;;6.27;100.00;102921.38;5019191;28;20080;-80
2022/03/07 08:18:25;;;;;;;6.80;2.25;;;;;;;6.58;100.00;102924.81;5019744;28;20033;-80
2022/03/07 08:20:56;;;;;;;4.07;1.80;;;;;;;6.74;100.00;102931.75;5037074;28;20064;-79
2022/03/07 08:23:26;;;;;;;5.78;1.83;;;;;;;6.95;100.00;102929.31;5004468;28;20117;-80
2022/03/07 08:25:56;;;;;;;3.67;1.70;;;;;;;7.16;100.00;102924.28;5012386;28;20527;-79
2022/03/07 08:28:25;;;;;;;3.90;1.75;;;;;;;7.43;100.00;102931.75;5056084;28;20052;-79
2022/03/07 08:30:53;;;;;;;6.63;2.00;;;;;;;7.64;100.00;102924.03;5050367;28;20032;-81
2022/03/07 08:33:25;;;;;;;3.40;1.50;;;;;;;7.88;100.00;102932.19;5030612;28;20037;-79
2022/03/07 08:35:55;;;;;;;3.92;1.67;;;;;;;7.98;100.00;102923.00;5031023;28;20329;-81
2022/03/07 08:38:29;;;;;;;4.03;1.77;;;;;;;8.01;100.00;102928.38;5034158;28;20053;-80
2022/03/07 08:41:02;;;;;;;4.32;1.85;;;;;;;8.10;100.00;102930.56;4998280;28;20377;-80
2022/03/07 08:43:30;;;;;;;9.85;2.45;;;;;;;8.03;100.00;102931.97;5038014;28;20510;-81
2022/03/07 08:46:00;;;;;;;5.55;1.67;;;;;;;8.13;100.00;102923.72;5038775;28;20060;-81
2022/03/07 08:48:29;;;;;;;3.22;1.42;;;;;;;8.11;100.00;102930.63;5048766;28;20049;-79
2022/03/07 08:50:58;;;;;;;11.47;2.17;;;;;;;8.06;100.00;102924.25;5054416;28;20048;-80
2022/03/07 08:53:28;;;;;;;6.25;1.42;;;;;;;8.02;100.00;102938.06;5022366;28;20056;-81
2022/03/07 08:55:56;;;;;;;6.97;2.33;;;;;;;8.01;100.00;102928.38;5004816;28;20834;-81
2022/03/07 08:58:45;;;;;;;6.82;1.80;;;;;;;8.07;100.00;102933.03;5034032;28;20033;-80
2022/03/07 09:01:13;;;;;;;7.00;1.95;;;;;;;8.13;100.00;102933.34;5030644;28;20049;-79
2022/03/07 09:03:42;;;;;;;3.97;2.10;;;;;;;8.05;100.00;102938.19;5011305;28;20052;-81
2022/03/07 09:06:17;;;;;;;8.25;2.22;;;;;;;8.04;100.00;102935.53;5047132;28;20049;-81
2022/03/07 09:08:45;;;;;;;7.40;2.35;;;;;;;8.11;100.00;102938.50;5049547;28;20041;-80
2022/03/07 09:11:14;;;;;;;12.65;2.33;;;;;;;8.05;100.00;102932.06;5020205;28;20504;-80
2022/03/07 09:13:42;;;;;;;8.70;2.20;;;;;;;7.90;100.00;102925.28;5043632;28;20055;-81
2022/03/07 09:16:14;;;;;;;4.40;1.80;;;;;;;7.79;100.00;102931.72;5046570;28;20056;-81
2022/03/07 09:18:42;;;;;;;5.15;1.90;;;;;;;7.70;100.00;102937.44;5035487;28;20044;-80
2022/03/07 09:21:11;;;;;;;8.45;1.85;;;;;;;7.67;99.72;102934.63;5032393;28;20049;-80
2022/03/07 09:23:40;;;;;;;5.20;1.83;;;;;;;7.71;99.07;102931.38;5016192;28;20069;-80
2022/03/07 09:26:11;;;;;;;4.93;1.80;;;;;;;7.71;98.65;102920.88;5017985;28;20060;-80
2022/03/07 09:28:40;;;;;;;4.53;1.80;;;;;;;7.68;97.31;102925.97;5021442;28;20383;-82
2022/03/07 09:31:10;;;;;;;9.43;2.00;;;;;;;7.56;96.61;102918.41;5048711;28;20040;-80
2022/03/07 09:33:39;;;;;;;4.35;1.92;;;;;;;7.52;96.84;102926.03;5044834;28;20037;-80
2022/03/07 09:36:07;;;;;;;4.43;2.00;;;;;;;7.49;96.82;102925.91;5004671;28;20057;-81
2022/03/07 09:38:38;;;;;;;7.33;1.60;;;;;;;7.40;97.08;102928.97;5070309;28;20041;-81
2022/03/07 09:41:07;;;;;;;8.70;2.55;;;;;;;7.30;96.58;102924.09;5013254;28;20057;-81
2022/03/07 09:43:35;;;;;;;4.78;2.15;;;;;;;7.16;96.17;102932.13;5031338;28;20060;-81
2022/03/07 09:46:04;;;;;;;4.15;1.90;;;;;;;6.99;96.78;102928.69;5024018;28;20300;-80
2022/03/07 09:48:33;;;;;;;5.20;1.60;;;;;;;6.80;97.06;102933.78;5015877;28;20064;-81
2022/03/07 09:51:02;;;;;;;6.10;1.73;;;;;;;6.67;97.54;102939.19;5035093;28;20441;-80
2022/03/07 09:53:31;;;;;;;7.85;1.58;;;;;;;6.61;98.31;102932.81;5052154;28;20056;-80
2022/03/07 09:56:00;;;;;;;19.90;2.83;;;;;;;6.60;99.16;102938.00;5028074;28;20048;-80
2022/03/07 09:58:29;;;;;;;6.68;1.83;;;;;;;6.62;99.58;102932.00;5037967;28;20040;-79
2022/03/07 10:01:10;;;;;;;2.35;1.55;;;;;;;6.63;99.77;102925.97;5031255;28;20041;-81
2022/03/07 10:03:40;;;;;;;6.15;1.90;;;;;;;6.62;99.29;102937.25;5045099;28;20049;-81
2022/03/07 10:06:14;;;;;;;11.75;1.95;;;;;;;6.61;100.00;102930.19;5014039;28;20185;-81
2022/03/07 10:09:03;;;;;;;4.75;1.73;;;;;;;6.62;99.71;102925.88;5041219;28;20041;-81
2022/03/07 10:11:33;;;;;;;5.15;2.22;;;;;;;6.58;99.57;102932.66;5061460;28;20127;-81
2022/03/07 10:14:05;;;;;;;4.70;1.90;;;;;;;6.55;99.45;102931.59;5022988;28;20049;-81
2022/03/07 10:16:43;;;;;;;5.00;1.92;;;;;;;6.63;100.00;102927.66;5051682;28;20048;-80
2022/03/07 10:19:14;;;;;;;7.68;2.08;;;;;;;6.65;100.00;102928.63;5025304;28;20057;-80
2022/03/07 10:21:48;;;;;;;4.03;1.85;;;;;;;6.64;100.00;102916.38;5034870;28;20060;-80
2022/03/07 10:24:17;;;;;;;5.70;1.90;;;;;;;6.71;100.00;102917.56;5044400;28;20044;-80
2022/03/07 10:26:46;;;;;;;6.47;1.70;;;;;;;6.71;100.00;102920.19;5029559;28;20053;-80
2022/03/07 10:29:15;;;;;;;8.68;1.70;;;;;;;6.64;100.00;102913.75;5033271;28;20056;-79
2022/03/07 10:32:00;;;;;;;4.68;1.83;;;;;;;6.57;99.84;102915.13;5050471;28;20052;-80
2022/03/07 10:34:28;;;;;;;7.38;1.80;;;;;;;6.56;99.86;102913.34;5034062;28;20048;-80
2022/03/07 10:36:57;;;;;;;5.80;1.77;;;;;;;6.61;100.00;102909.22;5031839;28;20033;-80
2022/03/07 10:39:26;;;;;;;5.68;1.92;;;;;;;6.66;100.00;102903.34;5004809;28;20512;-79
2022/03/07 10:41:55;;;;;;;5.57;1.63;;;;;;;6.71;100.00;102894.91;5024794;28;20273;-80
2022/03/07 10:44:28;;;;;;;3.58;1.70;;;;;;;6.78;99.73;102897.00;4997779;28;20053;-80
2022/03/07 10:47:17;;;;;;;3.33;1.77;;;;;;;6.91;99.83;102908.13;5034777;28;20071;-79
2022/03/07 10:49:54;;;;;;;1.02;1.02;;;;;;;7.02;99.84;102907.84;5043513;28;20040;-80
2022/03/07 10:52:35;;;;;;;3.75;1.50;;;;;;;7.13;99.01;102900.53;5047121;28;20052;-80
2022/03/07 10:55:06;;;;;;;5.60;2.00;;;;;;;7.18;98.65;102893.81;5040424;28;20037;-80
2022/03/07 10:57:36;;;;;;;8.27;2.05;;;;;;;7.22;97.66;102894.84;5039409;28;20045;-80
2022/03/07 11:00:06;;;;;;;;;;;;;;;7.27;97.84;102890.72;5050343;28;20041;-79
2022/03/07 11:02:41;;;;;;;4.00;1.80;;;;;;;7.33;97.63;102888.41;5049953;28;19929;-79
2022/03/07 11:05:11;;;;;;;1.88;1.63;;;;;;;7.42;97.54;102890.59;5045384;28;20422;-79
2022/03/07 11:07:43;;;;;;;6.40;1.80;;;;;;;7.48;96.84;102883.00;5051775;28;20041;-79
2022/03/07 11:10:13;;;;;;;6.53;1.90;;;;;;;7.54;96.14;102888.56;5033358;28;20041;-80
2022/03/07 11:12:43;;;;;;;;;;;;;;;7.59;94.25;102894.03;5021675;28;20057;-79
2022/03/07 11:15:18;;;;;;;2.75;1.40;;;;;;;7.62;93.63;102891.56;5031353;28;20770;-78
2022/03/07 11:17:47;;;;;;;3.47;1.98;;;;;;;7.63;93.12;102888.09;5046953;28;20063;-80
2022/03/07 11:20:19;;;;;;;4.65;1.85;;;;;;;7.57;92.74;102895.69;5034123;28;20053;-79
2022/03/07 11:22:47;;;;;;;4.20;2.10;;;;;;;7.45;91.90;102887.19;5055466;28;20044;-79
2022/03/07 11:25:18;;;;;;;4.93;2.05;;;;;;;7.41;92.07;102887.06;5045648;28;20048;-80
2022/03/07 11:27:47;;;;;;;6.82;2.38;;;;;;;7.46;92.81;102889.00;5018582;28;20057;-80
2022/03/07 11:30:19;;;;;;;5.10;2.10;;;;;;;7.52;91.27;102881.44;4993148;28;20080;-79
2022/03/07 11:32:52;;;;;;;5.47;2.55;;;;;;;7.58;91.18;102887.88;5009621;28;20037;-79
2022/03/07 11:35:31;;;;;;;3.22;1.88;;;;;;;7.64;90.26;102888.97;5043169;28;20580;-80